地図

経路データ

SID SEASON NUMBER BASIN SUBBASIN NAME ISO_TIME NATURE LAT LON WMO_WIND WMO_PRES WMO_AGENCY TRACK_TYPE DIST2LAND LANDFALL IFLAG USA_AGENCY USA_ATCF_ID USA_LAT USA_LON USA_RECORD USA_STATUS USA_WIND USA_PRES USA_SSHS USA_R34_NE USA_R34_SE USA_R34_SW USA_R34_NW USA_R50_NE USA_R50_SE USA_R50_SW USA_R50_NW USA_R64_NE USA_R64_SE USA_R64_SW USA_R64_NW USA_POCI USA_ROCI USA_RMW USA_EYE TOKYO_LAT TOKYO_LON TOKYO_GRADE TOKYO_WIND TOKYO_PRES TOKYO_R50_DIR TOKYO_R50_LONG TOKYO_R50_SHORT TOKYO_R30_DIR TOKYO_R30_LONG TOKYO_R30_SHORT TOKYO_LAND CMA_LAT CMA_LON CMA_CAT CMA_WIND CMA_PRES HKO_LAT HKO_LON HKO_CAT HKO_WIND HKO_PRES NEWDELHI_LAT NEWDELHI_LON NEWDELHI_GRADE NEWDELHI_WIND NEWDELHI_PRES NEWDELHI_CI NEWDELHI_DP NEWDELHI_POCI REUNION_LAT REUNION_LON REUNION_TYPE REUNION_WIND REUNION_PRES REUNION_TNUM REUNION_CI REUNION_RMW REUNION_R34_NE REUNION_R34_SE REUNION_R34_SW REUNION_R34_NW REUNION_R50_NE REUNION_R50_SE REUNION_R50_SW REUNION_R50_NW REUNION_R64_NE REUNION_R64_SE REUNION_R64_SW REUNION_R64_NW BOM_LAT BOM_LON BOM_TYPE BOM_WIND BOM_PRES BOM_TNUM BOM_CI BOM_RMW BOM_R34_NE BOM_R34_SE BOM_R34_SW BOM_R34_NW BOM_R50_NE BOM_R50_SE BOM_R50_SW BOM_R50_NW BOM_R64_NE BOM_R64_SE BOM_R64_SW BOM_R64_NW BOM_ROCI BOM_POCI BOM_EYE BOM_POS_METHOD BOM_PRES_METHOD NADI_LAT NADI_LON NADI_CAT NADI_WIND NADI_PRES WELLINGTON_LAT WELLINGTON_LON WELLINGTON_WIND WELLINGTON_PRES DS824_LAT DS824_LON DS824_STAGE DS824_WIND DS824_PRES TD9636_LAT TD9636_LON TD9636_STAGE TD9636_WIND TD9636_PRES TD9635_LAT TD9635_LON TD9635_WIND TD9635_PRES TD9635_ROCI NEUMANN_LAT NEUMANN_LON NEUMANN_CLASS NEUMANN_WIND NEUMANN_PRES MLC_LAT MLC_LON MLC_CLASS MLC_WIND MLC_PRES USA_GUST BOM_GUST BOM_GUST_PER REUNION_GUST REUNION_GUST_PER USA_SEAHGT USA_SEARAD_NE USA_SEARAD_SE USA_SEARAD_SW USA_SEARAD_NW STORM_SPEED STORM_DIR
1911068S14070 1911 20 SI MM NOT_NAMED 1911-03-09 00:00:00 TS -13.8000 70.1000 main 1494 1461 _________O____ -1 -13.8000 70.1000 TC 7 252
1911068S14070 1911 20 SI MM NOT_NAMED 1911-03-09 03:00:00 TS -13.9101 69.7601 main 1461 1418 _________P____ -1 -13.9101 69.7601 TC 7 254
1911068S14070 1911 20 SI MM NOT_NAMED 1911-03-09 06:00:00 TS -14.0000 69.4000 main 1418 1375 _________O____ -1 -14.0000 69.4000 TC 7 259
1911068S14070 1911 20 SI MM NOT_NAMED 1911-03-09 09:00:00 TS -14.0575 69.0075 main 1375 1338 _________P____ -1 -14.0575 69.0075 TC 8 263
1911068S14070 1911 20 SI MM NOT_NAMED 1911-03-09 12:00:00 TS -14.1000 68.6000 main 1338 1301 _________O____ -1 -14.1000 68.6000 TC 8 264
1911068S14070 1911 20 SI MM NOT_NAMED 1911-03-09 15:00:00 TS -14.1424 68.1999 main 1301 1259 _________P____ -1 -14.1424 68.1999 TC 8 263
1911068S14070 1911 20 SI MM NOT_NAMED 1911-03-09 18:00:00 TS -14.2000 67.8000 main 1259 1217 _________O____ -1 -14.2000 67.8000 TC 8 259
1911068S14070 1911 20 SI MM NOT_NAMED 1911-03-09 21:00:00 TS -14.2924 67.4075 main 1217 1175 _________P____ -1 -14.2924 67.4075 TC 8 256
1911068S14070 1911 20 SI MM NOT_NAMED 1911-03-10 00:00:00 TS -14.4000 67.0000 main 1175 1133 _________O____ -1 -14.4000 67.0000 TC 9 256
1911068S14070 1911 20 SI MM NOT_NAMED 1911-03-10 03:00:00 TS -14.4925 66.5499 main 1124 1083 _________P____ -1 -14.4925 66.5499 TC 9 257
1911068S14070 1911 20 SI MM NOT_NAMED 1911-03-10 06:00:00 TS -14.6000 66.1000 main 1083 1041 _________O____ -1 -14.6000 66.1000 TC 8 253
1911068S14070 1911 20 SI MM NOT_NAMED 1911-03-10 09:00:00 TS -14.7348 65.7149 main 1041 993 _________P____ -1 -14.7348 65.7149 TC 8 249
1911068S14070 1911 20 SI MM NOT_NAMED 1911-03-10 12:00:00 TS -14.9000 65.3000 main 993 937 _________O____ -1 -14.9000 65.3000 TC 10 249
1911068S14070 1911 20 SI MM NOT_NAMED 1911-03-10 15:00:00 TS -15.0925 64.7725 main 937 873 _________P____ -1 -15.0925 64.7725 TC 11 249
1911068S14070 1911 20 SI MM NOT_NAMED 1911-03-10 18:00:00 TS -15.3000 64.2000 main 873 817 _________O____ -1 -15.3000 64.2000 TC 12 250
1911068S14070 1911 20 SI MM NOT_NAMED 1911-03-10 21:00:00 TS -15.5000 63.6275 main 809 754 _________P____ -1 -15.5000 63.6275 TC 11 249
1911068S14070 1911 20 SI MM NOT_NAMED 1911-03-11 00:00:00 TS -15.7000 63.1000 main 754 707 _________O____ -1 -15.7000 63.1000 TC 10 246
1911068S14070 1911 20 SI MM NOT_NAMED 1911-03-11 03:00:00 TS -15.8998 62.6774 main 707 660 _________P____ -1 -15.8998 62.6774 TC 9 243
1911068S14070 1911 20 SI MM NOT_NAMED 1911-03-11 06:00:00 TS -16.1000 62.3000 main 660 614 _________O____ -1 -16.1000 62.3000 TC 8 242
1911068S14070 1911 20 SI MM NOT_NAMED 1911-03-11 09:00:00 TS -16.2924 61.8999 main 614 568 _________P____ -1 -16.2924 61.8999 TC 9 242
1911068S14070 1911 20 SI MM NOT_NAMED 1911-03-11 12:00:00 TS -16.5000 61.5000 main 568 522 _________O____ -1 -16.5000 61.5000 TC 9 240
1911068S14070 1911 20 SI MM NOT_NAMED 1911-03-11 15:00:00 TS -16.7350 61.0924 main 522 469 _________P____ -1 -16.7350 61.0924 TC 9 237
1911068S14070 1911 20 SI MM NOT_NAMED 1911-03-11 18:00:00 TS -17.0000 60.7000 main 469 416 _________O____ -1 -17.0000 60.7000 TC 9 234
1911068S14070 1911 20 SI MM NOT_NAMED 1911-03-11 21:00:00 TS -17.2775 60.3200 main 416 369 _________P____ -1 -17.2775 60.3200 TC 9 228
1911068S14070 1911 20 SI MM NOT_NAMED 1911-03-12 00:00:00 TS -17.6000 60.0000 main 369 330 _________O____ -1 -17.6000 60.0000 TC 9 218
1911068S14070 1911 20 SI MM NOT_NAMED 1911-03-12 03:00:00 TS -17.9700 59.7475 main 315 275 _________P____ -1 -17.9700 59.7475 TC 9 205
1911068S14070 1911 20 SI MM NOT_NAMED 1911-03-12 06:00:00 TS -18.4000 59.6000 main 275 246 _________O____ -1 -18.4000 59.6000 TC 9 191
1911068S14070 1911 20 SI MM NOT_NAMED 1911-03-12 09:00:00 TS -18.8700 59.5624 main 240 213 _________P____ -1 -18.8700 59.5624 TC 10 179
1911068S14070 1911 20 SI MM NOT_NAMED 1911-03-12 12:00:00 TS -19.4000 59.6000 main 213 190 _________O____ -1 -19.4000 59.6000 TC 11 177
1911068S14070 1911 20 SI MM NOT_NAMED 1911-03-12 15:00:00 TS -19.9925 59.6276 main 190 188 _________P____ -1 -19.9925 59.6276 TC 12 175
1911068S14070 1911 20 SI MM NOT_NAMED 1911-03-12 18:00:00 TS -20.6000 59.7000 main 200 200 _________O____ -1 -20.6000 59.7000 TC 12 171
1911068S14070 1911 20 SI MM NOT_NAMED 1911-03-12 21:00:00 TS -21.1650 59.8201 main 231 231 _________P____ -1 -21.1650 59.8201 TC 11 166
1911068S14070 1911 20 SI MM NOT_NAMED 1911-03-13 00:00:00 TS -21.7000 60.0000 main 273 273 _________O____ -1 -21.7000 60.0000 TC 11 160
1911068S14070 1911 20 SI MM NOT_NAMED 1911-03-13 03:00:00 TS -22.2150 60.2350 main 321 321 _________P____ -1 -22.2150 60.2350 TC 11 155
1911068S14070 1911 20 SI MM NOT_NAMED 1911-03-13 06:00:00 TS -22.7000 60.5000 main 379 379 _________O____ -1 -22.7000 60.5000 TC 11 154
1911068S14070 1911 20 SI MM NOT_NAMED 1911-03-13 09:00:00 TS -23.1574 60.7428 main 432 432 _________P____ -1 -23.1574 60.7428 TC 10 153
1911068S14070 1911 20 SI MM NOT_NAMED 1911-03-13 12:00:00 TS -23.6000 61.0000 main 485 485 _________O____ -1 -23.6000 61.0000 TC 10 151
1911068S14070 1911 20 SI MM NOT_NAMED 1911-03-13 15:00:00 TS -24.0500 61.2926 main 538 538 _________P____ -1 -24.0500 61.2926 TC 11 149
1911068S14070 1911 20 SI MM NOT_NAMED 1911-03-13 18:00:00 TS -24.5000 61.6000 main 600 600 _________O____ -1 -24.5000 61.6000 TC 11 148
1911068S14070 1911 20 SI MM NOT_NAMED 1911-03-13 21:00:00 TS -24.9501 61.9021 main 661 661 _________P____ -1 -24.9501 61.9021 TC 11 149
1911068S14070 1911 20 SI MM NOT_NAMED 1911-03-14 00:00:00 TS -25.4000 62.2000 main 715 _________O____ -1 -25.4000 62.2000 TC 11 149

IBTrACS Databaseについて

本データベースは、米国NOAAが公開する1842年以降の世界の熱帯低気圧のベストトラックデータアーカイブInternational Best Track Archive for Climate Stewardship (IBTrACS)を、ウェブで閲覧しやすい形式に変換したものです。

最終更新日:2021-10-19